Pays
Station

 

Conditions  météo  pour  Flagstaff, Flagstaff Pulliam Airport  -  Etats-Unis    Etats-Unis

  
1 °C
    
 
 

METAR pour Flagstaff, Flagstaff Pulliam Airport :

KFLG 200657Z AUTO 07006KT 10SM CLR 01/M09 A3037 RMK AO2 SLP263 T00061089 400561044

 

Voici le bulletin pour Flagstaff, Flagstaff Pulliam Airport - Etats-Unis.
 
Le bulletin a été fait il y a 16 minutes, à 06:57 UTC .
Le vent soufflait à la vitesse de 3.1 mètres par seconde de Est/Nord-est (070°).
 
La température était de 1 °C, avec un point de rosée à -9 °C.
La température ressentie était de -3 °C.
 
La pression atmosphérique était de 1028 hPa.
L'humidité relative était de 47.1%.
 
Le ciel était clair.
 
La visibilité globale était de 16.1 kilomètres.
 

 
 
 

Pays :   A   B   C   D   E   F   G   H   I   J   K   L   M   N   O   P   Q   R   S   T   U   V   W   Y   Z

 

Partenaires :  Info Météo avec Met'info
Météo Marine avec MeteoMarine.net
Infos Site  |  Infos Légales  |  Crédits  |  Confidentialité
Contactez-nous  |  Ajouter aux favoris
© 2013-2020 METAR - Tous droits réservés